Flight Track Log - Related Links

Times and Time Zones

All times are in EDT time to prevent confusion due to time zone crossing. See the SWA1362 flight status page for this flight to view local times or setup timezone preferences in your user account.

Time Position Orientation Groundspeed Altitude Reporting Facility
EDT Latitude Longitude Course Direction KTS MPH feet Rate Location/Type
Sat 07:15:52 AM 40.8167 -73.9167 270° West 183 211 2,700  Level New York TRACON
Sat 07:16:46 AM 40.8667 -73.9667 323° Northwest 243 280 4,900 2,842 Climbing New York TRACON
Sat 07:17:46 AM 40.9000 -74.0667 294° West 293 337 8,100 3,150 Climbing New York TRACON
Sat 07:18:46 AM 40.9000 -74.1833 270° West 312 359 11,200 2,631 Climbing New York TRACON
Sat 07:20:53 AM 40.9025 -74.4417 271° West 376 433 16,300 1,893 Climbing New York Center
Sat 07:21:00 AM 40.8667 -74.7134 270° West  Level FlightAware Approximate
Sat 07:21:53 AM 40.9058 -74.6011 272° West 394 453 17,100  Level New York Center
Sat 07:22:53 AM 40.9078 -74.7275 271° West 394 453 17,100  Level New York Center
Sat 07:23:54 AM 40.9128 -74.8897 272° West 394 453 17,100 780 Level New York Center
Sat 07:24:56 AM 40.9164 -75.0192 272° West 399 459 18,700 1,950 Climbing New York Center
Sat 07:25:54 AM 40.9153 -75.1672 269° West 404 465 21,000 2,350 Climbing New York Center
Sat 07:26:56 AM 40.8794 -75.3378 255° West 418 481 23,400 2,067 Climbing New York Center
Sat 07:27:53 AM 40.8539 -75.4622 255° West 432 497 25,100 1,866 Climbing New York Center
Sat 07:28:55 AM 40.8067 -75.6483 252° West 432 497 27,100 1,736 Climbing New York Center
Sat 07:29:54 AM 40.7686 -75.8128 253° West 456 525 28,600 1,525 Climbing New York Center
Sat 07:30:53 AM 40.7283 -75.9742 252° West 461 531 30,100 1,664 Climbing New York Center
Sat 07:31:53 AM 40.6897 -76.1381 253° West 466 536 31,900 1,736 Climbing New York Center
Sat 07:32:54 AM 40.6719 -76.2981 262° West 466 536 33,600 1,600 Climbing New York Center
Sat 07:33:53 AM 40.6958 -76.4533 282° West 441 507 35,100 1,210 Climbing New York Center
Sat 07:34:53 AM 40.7172 -76.6114 280° West 441 507 36,000 446 Climbing New York Center
Sat 07:35:54 AM 40.7408 -76.7639 282° West 441 507 36,000  Level New York Center
Sat 07:36:55 AM 40.7639 -76.9222 281° West 441 507 36,000  Level New York Center
Sat 07:37:53 AM 40.7869 -77.0806 281° West 436 502 36,000  Level New York Center
Sat 07:38:53 AM 40.8097 -77.2364 281° West 430 495 36,000  Level New York Center
Sat 07:39:53 AM 40.8294 -77.3725 281° West 430 495 36,000  Level New York Center
Sat 07:41:48 AM 40.8728 -77.6917 280° West 437 503 36,000  Level Cleveland Center
Sat 07:42:48 AM 40.8931 -77.8336 281° West 437 503 36,000  Level Cleveland Center
Sat 07:43:48 AM 40.9133 -77.9892 280° West 442 509 36,000  Level Cleveland Center
Sat 07:44:48 AM 40.9333 -78.1425 280° West 442 509 36,000  Level Cleveland Center
Sat 07:45:48 AM 40.9578 -78.3147 281° West 442 509 36,000  Level Cleveland Center
Sat 07:46:48 AM 40.9753 -78.4681 279° West 432 497 36,000  Level Cleveland Center
Sat 07:47:48 AM 40.9947 -78.6217 280° West 432 497 36,000  Level Cleveland Center
Sat 07:48:48 AM 41.0139 -78.7781 279° West 427 491 36,000  Level Cleveland Center
Sat 07:49:48 AM 41.0308 -78.9344 278° West 427 491 36,000  Level Cleveland Center
Sat 07:50:48 AM 41.0497 -79.0908 279° West 427 491 36,000  Level Cleveland Center
Sat 07:51:48 AM 41.0664 -79.2475 278° West 427 491 36,000  Level Cleveland Center
Sat 07:52:48 AM 41.0847 -79.4042 279° West 427 491 36,000  Level Cleveland Center
Sat 07:53:48 AM 41.1028 -79.5581 279° West 427 491 36,000  Level Cleveland Center
Sat 07:54:48 AM 41.1186 -79.7206 277° West 427 491 36,000  Level Cleveland Center
Sat 07:55:48 AM 41.1344 -79.8828 277° West 437 503 36,000  Level Cleveland Center
Sat 07:56:48 AM 41.1542 -80.0344 280° West 437 503 36,000  Level Cleveland Center
Sat 07:57:48 AM 41.1714 -80.1969 278° West 437 503 36,000  Level Cleveland Center
Sat 07:58:48 AM 41.1864 -80.3597 277° West 442 509 36,000  Level Cleveland Center
Sat 07:59:48 AM 41.2033 -80.5197 278° West 444 511 36,000  Level Cleveland Center
Sat 08:00:48 AM 41.2200 -80.6797 278° West 444 511 36,000  Level Cleveland Center
Sat 08:01:48 AM 41.2342 -80.8453 277° West 450 518 36,000  Level Cleveland Center
Sat 08:02:48 AM 41.2483 -80.9919 277° West 455 524 36,000  Level Cleveland Center
Sat 08:03:48 AM 41.2644 -81.1550 278° West 450 518 36,000 400 Level Cleveland Center
Sat 08:04:48 AM 41.2800 -81.3181 277° West 450 518 36,800 900 Climbing Cleveland Center
Sat 08:05:48 AM 41.2956 -81.4978 277° West 450 518 37,800 600 Climbing Cleveland Center
Sat 08:06:48 AM 41.3067 -81.6639 275° West 445 512 38,000 100 Climbing Cleveland Center
Sat 08:07:48 AM 41.3175 -81.8300 275° West 445 512 38,000  Level Cleveland Center
Sat 08:08:48 AM 41.3300 -81.9933 276° West 450 518 38,000  Level Cleveland Center
Sat 08:09:48 AM 41.3381 -82.1678 274° West 463 533 38,000  Level Cleveland Center
Sat 08:10:48 AM 41.3464 -82.3200 274° West 463 533 38,000  Level Cleveland Center
Sat 08:11:48 AM 41.3583 -82.4864 276° West 463 533 38,000  Level Cleveland Center
Sat 08:12:48 AM 41.3681 -82.6500 275° West 458 527 38,000  Level Cleveland Center
Sat 08:13:48 AM 41.3775 -82.8164 274° West 458 527 38,000  Level Cleveland Center
Sat 08:14:48 AM 41.3864 -82.9856 274° West 465 535 38,000  Level Cleveland Center
Sat 08:15:48 AM 41.3972 -83.1575 275° West 458 527 38,000  Level Cleveland Center
Sat 08:16:48 AM 41.4039 -83.3211 273° West 463 533 38,000  Level Cleveland Center
Sat 08:17:48 AM 41.4144 -83.4906 275° West 463 533 38,000  Level Cleveland Center
Sat 08:18:48 AM 41.4225 -83.6597 274° West 463 533 38,000  Level Cleveland Center
Sat 08:19:48 AM 41.4303 -83.8319 274° West 463 533 38,000  Level Cleveland Center
Sat 08:20:48 AM 41.4419 -84.0042 275° West 463 533 38,000 -850 Level Cleveland Center
Sat 08:21:48 AM 41.4494 -84.1681 274° West 463 533 36,300 -1,910 Descending Cleveland Center
Sat 08:24:09 AM 41.4694 -84.5503 274° West 440 506 31,600 -1,871 Descending Chicago Center
Sat 08:25:10 AM 41.4761 -84.7056 273° West 424 488 30,000 -787 Descending Chicago Center
Sat 08:26:11 AM 41.4825 -84.8597 273° West 419 482 30,000  Level Chicago Center
Sat 08:27:12 AM 41.4889 -85.0164 273° West 421 484 30,000 -984 Level Chicago Center
Sat 08:28:13 AM 41.4956 -85.1850 273° West 447 514 28,000 -2,164 Descending Chicago Center
Sat 08:29:14 AM 41.5006 -85.3539 272° West 451 519 25,600 -2,000 Descending Chicago Center
Sat 08:30:16 AM 41.5075 -85.5211 273° West 439 505 23,900 -2,000 Descending Chicago Center
Sat 08:31:17 AM 41.5133 -85.6792 273° West 423 487 21,500 -2,459 Descending Chicago Center
Sat 08:32:18 AM 41.5189 -85.8644 272° West 416 479 18,900 -2,361 Descending Chicago Center
Sat 08:33:19 AM 41.5236 -86.0206 272° West 420 483 16,700 -2,262 Descending Chicago Center
Sat 08:34:20 AM 41.5242 -86.1731 270° West 414 476 14,300 -2,244 Descending Chicago Center
Sat 08:35:22 AM 41.5225 -86.3200 269° West 401 461 12,100 -1,707 Descending Chicago Center
Sat 08:36:23 AM 41.5233 -86.4592 271° West 379 436 10,800 -984 Descending Chicago Center
Sat 08:37:24 AM 41.5208 -86.5928 269° West 364 419 10,100 -344 Descending Chicago Center
Sat 08:38:25 AM 41.5200 -86.7361 270° West 365 420 10,100 -146 Level Chicago Center
Sat 08:39:27 AM 41.5186 -86.8592 269° West 335 386 9,800 -829 Descending Chicago Center
Sat 08:40:28 AM 41.5172 -86.9725 269° West 308 354 8,400 -1,475 Descending Chicago Center
Sat 08:41:29 AM 41.5156 -87.0847 269° West 306 352 6,800 -1,286 Descending Chicago Center
Sat 08:42:20 AM 41.5167 -87.1833 271° West 295 339 6,000 -865 Descending Chicago TRACON
Sat 08:43:20 AM 41.5167 -87.3000 270° West 281 323 5,200 -895 Descending Chicago TRACON
Sat 08:44:14 AM 41.5167 -87.3833 270° West 278 320 4,300 -1,068 Descending Chicago TRACON
Sat 08:44:33 AM 41.5128 -87.4211 262° West 279 321 3,900 -225 Descending Chicago Center
Sat 08:45:34 AM 41.5186 -87.5208 275° West 275 316 4,000 49 Climbing Chicago Center
Sat 08:46:36 AM 41.5322 -87.6211 280° West 275 316 4,000 -49 Level Chicago Center
Sat 08:47:37 AM 41.5517 -87.7150 285° West 269 310 3,900 -246 Descending Chicago Center
Sat 08:48:38 AM 41.5764 -87.7950 292° West 251 289 3,500 -689 Descending Chicago Center
Sat 08:49:39 AM 41.6186 -87.8608 311° West 241 277 2,500 -684 Descending Chicago Center
Sat 08:49:57 AM 41.6500 -87.8667 352° North 231 266 2,600 77 Climbing Chicago TRACON
Sat 08:50:57 AM 41.7000 -87.8333 26° Northeast 181 208 2,600 -350 Level Chicago TRACON
Sat 08:51:57 AM 41.7333 -87.8167 20° North 152 175 1,900 -737 Descending Chicago TRACON
Sat 08:52:51 AM 41.7667 -87.7833 37° Northeast 147 169 1,200 -778 Descending Chicago TRACON
Sat 08:55:00 AM 41.7833 -87.7500 24° Northeast  Level FlightAware Approximate

Login

Don't have an account? Register now (free) for customized features, flight alerts, and more!